createdAt,value
2018-09-14T00:02:08.395Z,14.38
2018-09-14T00:04:37.083Z,14.35
2018-09-14T00:07:05.538Z,14.38
2018-09-14T00:09:33.969Z,14.40
2018-09-14T00:12:02.584Z,14.37
2018-09-14T00:14:31.022Z,14.25
2018-09-14T00:17:00.177Z,14.22
2018-09-14T00:19:28.734Z,14.25
2018-09-14T00:21:57.501Z,14.27
2018-09-14T00:24:25.968Z,14.27
2018-09-14T00:26:56.103Z,14.29
2018-09-14T00:29:24.798Z,14.30
2018-09-14T00:31:53.331Z,14.31
2018-09-14T00:34:21.858Z,14.30
2018-09-14T00:36:50.428Z,14.30
2018-09-14T00:39:18.907Z,14.30
2018-09-14T00:41:47.975Z,14.29
2018-09-14T00:44:16.673Z,14.27
2018-09-14T00:46:45.121Z,14.24
2018-09-14T00:49:14.317Z,14.25
2018-09-14T00:51:43.176Z,14.23
2018-09-14T00:54:11.784Z,14.21
2018-09-14T00:56:40.206Z,14.19
2018-09-14T00:59:08.899Z,14.19
2018-09-14T01:01:37.520Z,14.18
2018-09-14T01:04:06.183Z,14.17
2018-09-14T01:06:34.678Z,14.14
2018-09-14T01:09:03.302Z,14.12
2018-09-14T01:11:31.919Z,14.10
2018-09-14T01:14:01.173Z,14.08
2018-09-14T01:16:29.834Z,14.06
2018-09-14T01:18:58.604Z,14.03
2018-09-14T01:21:28.349Z,14.02
2018-09-14T01:23:57.093Z,13.99
2018-09-14T01:26:26.234Z,13.99
2018-09-14T01:28:54.945Z,13.98
2018-09-14T01:31:23.431Z,13.95
2018-09-14T01:33:51.940Z,13.93
2018-09-14T01:36:20.485Z,13.92
2018-09-14T01:38:48.915Z,13.87
2018-09-14T01:41:17.432Z,13.77
2018-09-14T01:43:46.042Z,13.74
2018-09-14T01:46:14.491Z,13.72
2018-09-14T01:48:43.384Z,13.73
2018-09-14T01:51:11.850Z,13.74
2018-09-14T01:53:40.443Z,13.73
2018-09-14T01:56:08.946Z,13.73
2018-09-14T01:58:37.613Z,13.72
2018-09-14T02:01:06.160Z,13.71
2018-09-14T02:03:34.812Z,13.69
2018-09-14T02:06:03.286Z,13.69
2018-09-14T02:08:31.880Z,13.67
2018-09-14T02:11:00.679Z,13.66
2018-09-14T02:13:29.120Z,13.62
2018-09-14T02:15:58.414Z,13.61
2018-09-14T02:18:27.201Z,13.59
2018-09-14T02:20:55.791Z,13.58
2018-09-14T02:23:24.360Z,13.58
2018-09-14T02:25:53.481Z,13.57
2018-09-14T02:28:22.356Z,13.55
2018-09-14T02:30:51.328Z,13.53
2018-09-14T02:33:20.083Z,13.52
2018-09-14T02:35:48.537Z,13.49
2018-09-14T02:38:23.152Z,13.49
2018-09-14T02:40:51.717Z,13.47
2018-09-14T02:43:20.418Z,13.47
2018-09-14T02:45:48.984Z,13.45
2018-09-14T02:48:17.563Z,13.44
2018-09-14T02:50:46.132Z,13.44
2018-09-14T02:53:15.361Z,13.43
2018-09-14T02:55:43.843Z,13.42
2018-09-14T02:58:12.310Z,13.42
2018-09-14T03:00:41.593Z,13.39
2018-09-14T03:03:10.169Z,13.36
2018-09-14T03:05:38.748Z,13.36
2018-09-14T03:08:07.694Z,13.34
2018-09-14T03:10:36.420Z,13.33
2018-09-14T03:13:05.095Z,13.33
2018-09-14T03:15:33.693Z,13.30
2018-09-14T03:18:02.276Z,13.28
2018-09-14T03:20:30.732Z,13.27
2018-09-14T03:22:59.332Z,13.25
2018-09-14T03:25:27.973Z,13.24
2018-09-14T03:27:56.386Z,13.22
2018-09-14T03:30:24.955Z,13.22
2018-09-14T03:32:54.112Z,13.21
2018-09-14T03:35:22.675Z,13.20
2018-09-14T03:37:51.301Z,13.17
2018-09-14T03:40:19.767Z,13.17
2018-09-14T03:42:48.272Z,13.13
2018-09-14T03:45:18.063Z,13.11
2018-09-14T03:47:46.595Z,13.11
2018-09-14T03:50:15.033Z,13.08
2018-09-14T03:52:43.540Z,13.07
2018-09-14T03:55:12.779Z,13.06
2018-09-14T03:57:41.330Z,13.04
2018-09-14T04:00:09.753Z,13.03
2018-09-14T04:02:38.540Z,13.02
2018-09-14T04:05:07.212Z,13.01
2018-09-14T04:07:35.728Z,13.00
2018-09-14T04:10:05.248Z,12.99
2018-09-14T04:12:34.116Z,12.96
2018-09-14T04:15:02.895Z,12.94
2018-09-14T04:17:38.172Z,12.93
2018-09-14T04:20:07.577Z,12.92
2018-09-14T04:22:36.236Z,12.91
2018-09-14T04:25:04.903Z,12.88
2018-09-14T04:27:33.477Z,12.86
2018-09-14T04:30:02.026Z,12.83
2018-09-14T04:32:30.640Z,12.81
2018-09-14T04:34:59.100Z,12.78
2018-09-14T04:37:27.713Z,12.72
2018-09-14T04:39:56.186Z,12.70
2018-09-14T04:42:24.683Z,12.65
2018-09-14T04:44:53.376Z,12.63
2018-09-14T04:47:21.992Z,12.58
2018-09-14T04:49:51.137Z,12.47
2018-09-14T04:52:19.952Z,12.35
2018-09-14T04:54:48.578Z,12.31
2018-09-14T04:57:17.176Z,12.31
2018-09-14T04:59:45.673Z,12.30
2018-09-14T05:02:14.270Z,12.28
2018-09-14T05:04:42.958Z,12.30
2018-09-14T05:07:12.144Z,12.34
2018-09-14T05:09:40.679Z,12.32
2018-09-14T05:12:09.523Z,12.30
2018-09-14T05:14:38.242Z,12.29
2018-09-14T05:17:06.908Z,12.30
2018-09-14T05:19:35.364Z,12.26
2018-09-14T05:22:03.881Z,12.26
2018-09-14T05:24:32.460Z,12.28
2018-09-14T05:27:01.003Z,12.30
2018-09-14T05:29:29.529Z,12.33
2018-09-14T05:31:58.304Z,12.35
2018-09-14T05:34:26.952Z,12.37
2018-09-14T05:36:55.589Z,12.39
2018-09-14T05:39:24.148Z,12.40
2018-09-14T05:41:53.367Z,12.42
2018-09-14T05:44:22.068Z,12.44
2018-09-14T05:46:50.675Z,12.46
2018-09-14T05:49:19.218Z,12.50
2018-09-14T05:51:47.907Z,12.51
2018-09-14T05:54:23.170Z,12.54
2018-09-14T05:56:51.788Z,12.56
2018-09-14T05:59:21.378Z,12.60
2018-09-14T06:01:50.560Z,12.63
2018-09-14T06:04:19.306Z,12.66
2018-09-14T06:06:47.834Z,12.67
2018-09-14T06:09:16.332Z,12.69
2018-09-14T06:11:45.072Z,12.72
2018-09-14T06:14:13.611Z,12.76
2018-09-14T06:16:42.027Z,12.80
2018-09-14T06:19:10.520Z,12.84
2018-09-14T06:21:39.002Z,12.88
2018-09-14T06:24:07.552Z,12.92
2018-09-14T06:26:36.045Z,12.94
2018-09-14T06:29:04.721Z,12.97
2018-09-14T06:31:33.472Z,13.03
2018-09-14T06:34:01.961Z,13.06
2018-09-14T06:36:31.008Z,13.14
2018-09-14T06:38:59.644Z,13.31
2018-09-14T06:41:28.491Z,13.43
2018-09-14T06:43:57.657Z,13.53
2018-09-14T06:46:26.295Z,13.61
2018-09-14T06:48:54.883Z,13.71
2018-09-14T06:51:23.422Z,13.76
2018-09-14T06:53:51.961Z,13.82
2018-09-14T06:56:20.496Z,13.85
2018-09-14T06:58:48.969Z,13.88
2018-09-14T07:01:17.452Z,13.90
2018-09-14T07:03:46.510Z,13.87
2018-09-14T07:06:15.263Z,13.86
2018-09-14T07:08:44.278Z,13.89
2018-09-14T07:11:13.504Z,13.95
2018-09-14T07:13:42.281Z,14.00
2018-09-14T07:16:10.850Z,14.05
2018-09-14T07:18:39.445Z,14.12
2018-09-14T07:21:08.245Z,14.18
2018-09-14T07:23:36.748Z,14.21
2018-09-14T07:26:05.337Z,14.25
2018-09-14T07:28:33.867Z,14.28
2018-09-14T07:31:02.614Z,14.33
2018-09-14T07:33:31.864Z,14.39
2018-09-14T07:36:00.514Z,14.47
2018-09-14T07:38:29.118Z,14.55
2018-09-14T07:40:57.746Z,14.56
2018-09-14T07:43:26.218Z,14.61
2018-09-14T07:45:55.057Z,14.61
2018-09-14T07:48:23.558Z,14.58
2018-09-14T07:50:52.137Z,14.58
2018-09-14T07:53:20.736Z,14.62
2018-09-14T07:55:49.244Z,14.68
2018-09-14T07:58:17.703Z,14.76
2018-09-14T08:00:46.299Z,14.81
2018-09-14T08:03:14.765Z,14.87
2018-09-14T08:05:43.407Z,14.94
2018-09-14T08:08:12.241Z,14.97
2018-09-14T08:10:40.875Z,15.06
2018-09-14T08:13:09.594Z,15.13
2018-09-14T08:15:38.794Z,15.18
2018-09-14T08:18:07.273Z,15.23
2018-09-14T08:20:36.374Z,15.32
2018-09-14T08:23:05.265Z,15.39
2018-09-14T08:25:33.826Z,15.47
2018-09-14T08:28:02.495Z,15.54
2018-09-14T08:30:31.119Z,15.61
2018-09-14T08:32:59.872Z,15.67
2018-09-14T08:35:28.390Z,15.72
2018-09-14T08:37:56.845Z,15.79
2018-09-14T08:40:25.396Z,15.86
2018-09-14T08:42:53.849Z,15.91
2018-09-14T08:45:22.439Z,15.96
2018-09-14T08:47:51.280Z,16.01
2018-09-14T08:50:19.842Z,16.11
2018-09-14T08:52:48.476Z,16.18
2018-09-14T08:55:16.957Z,16.21
2018-09-14T08:57:45.471Z,16.30
2018-09-14T09:00:17.072Z,16.39
2018-09-14T09:02:45.881Z,16.47
2018-09-14T09:05:14.473Z,16.59
2018-09-14T09:07:42.942Z,16.70
2018-09-14T09:10:11.510Z,16.83
2018-09-14T09:12:40.129Z,16.95
2018-09-14T09:15:08.849Z,17.04
2018-09-14T09:17:37.449Z,17.12
2018-09-14T09:20:06.907Z,17.18
2018-09-14T09:22:35.493Z,17.24
2018-09-14T09:25:04.001Z,17.36
2018-09-14T09:27:33.136Z,17.43
2018-09-14T09:30:02.081Z,17.44
2018-09-14T09:32:30.654Z,17.51
2018-09-14T09:34:59.308Z,17.60
2018-09-14T09:37:27.718Z,17.74
2018-09-14T09:39:56.310Z,17.89
2018-09-14T09:42:25.034Z,18.02
2018-09-14T09:44:54.263Z,18.15
2018-09-14T09:47:23.009Z,18.31
2018-09-14T09:49:51.487Z,18.48
2018-09-14T09:52:20.283Z,18.57
2018-09-14T09:54:48.763Z,18.66
2018-09-14T09:57:17.450Z,18.76
2018-09-14T09:59:46.427Z,18.86
2018-09-14T10:02:20.319Z,19.02
2018-09-14T10:04:54.028Z,19.13
2018-09-14T10:07:25.731Z,19.20
2018-09-14T10:09:54.735Z,19.24
2018-09-14T10:12:24.339Z,19.31
2018-09-14T10:14:53.150Z,19.46
2018-09-14T10:17:21.705Z,19.67
2018-09-14T10:19:50.226Z,19.84
2018-09-14T10:22:18.794Z,19.95
2018-09-14T10:24:47.982Z,19.97
2018-09-14T10:27:16.685Z,20.02
2018-09-14T10:29:45.255Z,20.10
2018-09-14T10:32:13.820Z,20.21
2018-09-14T10:34:42.442Z,20.28
2018-09-14T10:37:14.025Z,20.33
2018-09-14T10:39:42.588Z,20.42
2018-09-14T10:42:11.347Z,20.45
2018-09-14T10:44:40.039Z,20.53
2018-09-14T10:47:08.490Z,20.61
2018-09-14T10:49:37.304Z,20.76
2018-09-14T10:52:05.786Z,20.87
2018-09-14T10:54:34.519Z,21.09
2018-09-14T10:57:03.246Z,21.10
2018-09-14T10:59:31.724Z,21.11
2018-09-14T11:02:00.180Z,21.24
2018-09-14T11:04:29.067Z,21.23
2018-09-14T11:06:57.601Z,21.23
2018-09-14T11:09:26.294Z,21.37
2018-09-14T11:11:54.901Z,21.59
2018-09-14T11:14:23.579Z,21.85
2018-09-14T11:16:52.015Z,21.94
2018-09-14T11:19:21.180Z,22.17
2018-09-14T11:21:56.381Z,22.26
2018-09-14T11:24:24.978Z,22.28
2018-09-14T11:26:53.385Z,22.47
2018-09-14T11:29:22.054Z,22.59
2018-09-14T11:31:51.136Z,22.68
2018-09-14T11:34:19.768Z,22.78
2018-09-14T11:36:48.314Z,22.80
2018-09-14T11:39:16.964Z,22.86
2018-09-14T11:41:45.573Z,22.99
2018-09-14T11:44:14.207Z,22.90
2018-09-14T11:46:42.741Z,23.00
2018-09-14T11:49:11.280Z,23.18
2018-09-14T11:51:40.163Z,23.44
2018-09-14T11:54:08.927Z,23.43
2018-09-14T11:56:37.921Z,23.44
2018-09-14T11:59:06.632Z,23.61
2018-09-14T12:01:35.181Z,23.84
2018-09-14T12:04:03.839Z,24.04
2018-09-14T12:06:32.458Z,24.25
2018-09-14T12:09:01.373Z,24.45
2018-09-14T12:11:29.959Z,24.38
2018-09-14T12:13:58.517Z,24.42
2018-09-14T12:16:27.079Z,24.55
2018-09-14T12:18:56.038Z,24.60
2018-09-14T12:21:24.659Z,24.71
2018-09-14T12:23:53.109Z,25.05
2018-09-14T12:26:21.808Z,25.29
2018-09-14T12:28:50.517Z,25.49
2018-09-14T12:31:19.537Z,25.59
2018-09-14T12:33:47.981Z,25.67
2018-09-14T12:36:16.605Z,25.73
2018-09-14T12:38:45.110Z,25.93
2018-09-14T12:41:14.414Z,26.08
2018-09-14T12:43:42.849Z,25.95
2018-09-14T12:46:11.468Z,26.04
2018-09-14T12:48:40.385Z,25.92
2018-09-14T12:51:09.044Z,25.88
2018-09-14T12:53:37.864Z,25.99
2018-09-14T12:56:08.054Z,26.07
2018-09-14T12:58:37.309Z,26.14
2018-09-14T13:01:05.932Z,26.06
2018-09-14T13:03:34.682Z,26.08
2018-09-14T13:06:03.172Z,26.10
2018-09-14T13:08:31.832Z,26.27
2018-09-14T13:11:00.530Z,26.45
2018-09-14T13:13:31.105Z,26.53
2018-09-14T13:16:00.312Z,26.42
2018-09-14T13:18:29.880Z,26.32
2018-09-14T13:20:58.430Z,26.36
2018-09-14T13:23:27.020Z,26.46
2018-09-14T13:25:55.779Z,26.41
2018-09-14T13:28:24.520Z,26.29
2018-09-14T13:30:53.528Z,26.49
2018-09-14T13:33:22.520Z,26.74
2018-09-14T13:35:51.866Z,26.69
2018-09-14T13:38:20.366Z,26.46
2018-09-14T13:40:49.817Z,26.12
2018-09-14T13:43:18.298Z,26.16
2018-09-14T13:45:48.515Z,26.33
2018-09-14T13:48:17.276Z,26.18
2018-09-14T13:50:45.741Z,25.92
2018-09-14T13:53:15.455Z,25.85
2018-09-14T13:55:45.675Z,25.59
2018-09-14T13:58:14.501Z,25.56
2018-09-14T14:00:43.134Z,25.55
2018-09-14T14:03:11.645Z,25.44
2018-09-14T14:05:40.365Z,25.26
2018-09-14T14:08:08.831Z,25.30
2018-09-14T14:10:37.520Z,25.43
2018-09-14T14:13:06.480Z,25.47
2018-09-14T14:15:34.974Z,25.51
2018-09-14T14:18:03.485Z,25.28
2018-09-14T14:20:32.422Z,25.24
2018-09-14T14:23:01.167Z,25.19
2018-09-14T14:25:29.825Z,25.26
2018-09-14T14:27:58.392Z,25.15
2018-09-14T14:30:27.055Z,25.26
2018-09-14T14:32:55.689Z,25.50
2018-09-14T14:35:24.292Z,25.68
2018-09-14T14:37:56.282Z,25.72
2018-09-14T14:40:26.232Z,25.69
2018-09-14T14:42:54.724Z,25.66
2018-09-14T14:45:23.341Z,25.84
2018-09-14T14:47:51.837Z,25.75
2018-09-14T14:50:20.489Z,25.63
2018-09-14T14:52:50.144Z,25.52
2018-09-14T14:55:18.626Z,25.39
2018-09-14T14:57:47.102Z,25.28
2018-09-14T15:00:15.698Z,25.10
2018-09-14T15:02:44.393Z,25.05
2018-09-14T15:05:14.225Z,25.11
2018-09-14T15:07:42.744Z,25.18
2018-09-14T15:10:12.053Z,25.32
2018-09-14T15:12:40.796Z,25.30
2018-09-14T15:15:10.093Z,25.14
2018-09-14T15:17:38.690Z,24.77
2018-09-14T15:20:07.810Z,24.41
2018-09-14T15:22:37.085Z,24.25
2018-09-14T15:25:06.423Z,24.08
2018-09-14T15:27:34.892Z,23.95
2018-09-14T15:30:04.469Z,23.78
2018-09-14T15:32:32.963Z,23.69
2018-09-14T15:35:01.429Z,23.63
2018-09-14T15:37:36.559Z,23.58
2018-09-14T15:40:11.832Z,23.37
2018-09-14T15:42:42.856Z,23.19
2018-09-14T15:45:12.204Z,23.04
2018-09-14T15:47:41.030Z,22.72
2018-09-14T15:50:10.255Z,22.51
2018-09-14T15:52:38.987Z,22.39
2018-09-14T15:55:07.705Z,22.43
2018-09-14T15:57:37.521Z,22.53
2018-09-14T16:00:07.522Z,22.61
2018-09-14T16:02:36.983Z,22.59
2018-09-14T16:05:06.216Z,22.54
2018-09-14T16:07:37.912Z,22.46
2018-09-14T16:10:06.952Z,22.47
2018-09-14T16:12:41.360Z,22.46
2018-09-14T16:15:10.269Z,22.38
2018-09-14T16:17:38.782Z,22.29
2018-09-14T16:20:08.853Z,22.27
2018-09-14T16:22:39.018Z,22.23
2018-09-14T16:25:07.600Z,22.15
2018-09-14T16:27:44.595Z,22.07
2018-09-14T16:30:13.335Z,22.03
2018-09-14T16:32:41.896Z,21.99
2018-09-14T16:37:47.936Z,21.91
2018-09-14T16:40:17.286Z,21.76
2018-09-14T16:42:46.042Z,21.65
2018-09-14T16:45:21.105Z,21.65
2018-09-14T16:47:55.802Z,21.70
2018-09-14T16:50:25.392Z,21.71
2018-09-14T16:52:55.342Z,21.69
2018-09-14T16:55:23.854Z,21.66
2018-09-14T16:57:54.743Z,21.66
2018-09-14T17:00:23.512Z,21.61
2018-09-14T17:02:52.088Z,21.56
2018-09-14T17:05:21.594Z,21.55
2018-09-14T17:07:51.873Z,21.50
2018-09-14T17:10:21.757Z,21.50
2018-09-14T17:12:50.264Z,21.41
2018-09-14T17:15:18.739Z,21.38
2018-09-14T17:17:48.251Z,21.36
2018-09-14T17:20:16.873Z,21.33
2018-09-14T17:22:45.560Z,21.31
2018-09-14T17:25:14.661Z,21.29
2018-09-14T17:27:43.351Z,21.28
2018-09-14T17:30:12.062Z,21.26
2018-09-14T17:32:40.556Z,21.20
2018-09-14T17:35:09.528Z,21.13
2018-09-14T17:37:38.344Z,21.07
2018-09-14T17:40:07.087Z,21.02
2018-09-14T17:42:35.966Z,20.96
2018-09-14T17:45:04.869Z,20.90
2018-09-14T17:47:33.497Z,20.88
2018-09-14T17:50:02.039Z,20.85
2018-09-14T17:52:31.288Z,20.78
2018-09-14T17:55:00.567Z,20.73
2018-09-14T17:57:29.454Z,20.68
2018-09-14T17:59:58.648Z,20.62
2018-09-14T18:02:27.449Z,20.58
2018-09-14T18:04:55.940Z,20.52
2018-09-14T18:07:24.728Z,20.51
2018-09-14T18:09:53.346Z,20.46
2018-09-14T18:12:22.094Z,20.41
2018-09-14T18:14:51.341Z,20.38
2018-09-14T18:17:19.789Z,20.32
2018-09-14T18:19:49.309Z,20.29
2018-09-14T18:22:19.379Z,20.26
2018-09-14T18:24:49.000Z,20.25
2018-09-14T18:27:17.667Z,20.23
2018-09-14T18:29:46.354Z,20.18
2018-09-14T18:32:15.028Z,20.13
2018-09-14T18:34:44.739Z,20.07
2018-09-14T18:37:13.775Z,20.03
2018-09-14T18:39:42.989Z,20.00
2018-09-14T18:42:11.631Z,20.00
2018-09-14T18:44:41.708Z,19.99
2018-09-14T18:47:10.550Z,19.99
2018-09-14T18:49:39.173Z,19.98
2018-09-14T18:52:08.733Z,19.96
2018-09-14T18:54:37.458Z,19.96
2018-09-14T18:57:06.091Z,19.97
2018-09-14T18:59:35.272Z,19.94
2018-09-14T19:02:03.831Z,19.92
2018-09-14T19:04:32.443Z,19.89
2018-09-14T19:07:01.084Z,19.86
2018-09-14T19:09:29.792Z,19.84
2018-09-14T19:11:58.228Z,19.81
2018-09-14T19:14:26.901Z,19.79
2018-09-14T19:16:55.373Z,19.78
2018-09-14T19:19:27.715Z,19.73
2018-09-14T19:21:57.968Z,19.70
2018-09-14T19:24:27.865Z,19.69
2018-09-14T19:26:56.435Z,19.65
2018-09-14T19:29:25.817Z,19.59
2018-09-14T19:31:54.535Z,19.51
2018-09-14T19:34:23.758Z,19.51
2018-09-14T19:36:52.931Z,19.49
2018-09-14T19:39:21.425Z,19.48
2018-09-14T19:41:50.116Z,19.46
2018-09-14T19:44:18.611Z,19.46
2018-09-14T19:46:47.292Z,19.43
2018-09-14T19:49:15.901Z,19.35
2018-09-14T19:51:45.226Z,19.27
2018-09-14T19:54:14.377Z,19.26
2018-09-14T19:56:43.202Z,19.25
2018-09-14T19:59:11.813Z,19.24
2018-09-14T20:01:41.294Z,19.23
2018-09-14T20:04:10.113Z,19.20
2018-09-14T20:26:47.637Z,18.82
2018-09-14T20:29:17.183Z,18.83
2018-09-14T20:31:45.802Z,18.82
2018-09-14T20:34:16.919Z,18.83
2018-09-14T20:36:52.624Z,18.82
2018-09-14T20:39:22.801Z,18.79
2018-09-14T20:41:51.629Z,18.79
2018-09-14T20:44:20.936Z,18.77
2018-09-14T20:46:55.170Z,18.76
2018-09-14T20:49:23.774Z,18.76
2018-09-14T20:51:52.433Z,18.72
2018-09-14T20:54:20.876Z,18.71
2018-09-14T20:56:49.615Z,18.70
2018-09-14T20:59:18.476Z,18.71
2018-09-14T21:01:48.694Z,18.70
2018-09-14T21:04:17.417Z,18.70
2018-09-14T21:06:45.879Z,18.68
2018-09-14T21:09:15.468Z,18.65
2018-09-14T21:11:44.500Z,18.63
2018-09-14T21:14:12.956Z,18.63
2018-09-14T21:16:41.462Z,18.63
2018-09-14T21:19:10.123Z,18.59
2018-09-14T21:21:39.963Z,18.50
2018-09-14T21:24:08.676Z,18.47
2018-09-14T21:26:37.270Z,18.45
2018-09-14T21:29:06.244Z,18.46
2018-09-14T21:31:35.664Z,18.43
2018-09-14T21:34:04.272Z,18.39
2018-09-14T21:36:32.945Z,18.31
2018-09-14T21:39:01.548Z,18.32
2018-09-14T21:41:30.645Z,18.35
2018-09-14T21:43:59.352Z,18.34
2018-09-14T21:46:27.858Z,18.31
2018-09-14T21:48:57.202Z,18.31
2018-09-14T21:51:26.321Z,18.31
2018-09-14T21:53:54.966Z,18.28
2018-09-14T21:56:23.475Z,18.22
2018-09-14T21:58:52.476Z,18.23
2018-09-14T22:01:27.060Z,18.23
2018-09-14T22:03:56.305Z,18.23
2018-09-14T22:06:25.137Z,18.25
2018-09-14T22:08:54.299Z,18.26
2018-09-14T22:11:23.667Z,18.26
2018-09-14T22:13:52.649Z,18.26
2018-09-14T22:16:21.593Z,18.23
2018-09-14T22:18:50.339Z,18.23
2018-09-14T22:21:19.497Z,18.23
2018-09-14T22:23:48.200Z,18.24
2018-09-14T22:26:16.829Z,18.18
2018-09-14T22:28:45.473Z,18.11
2018-09-14T22:31:14.125Z,18.13
2018-09-14T22:33:42.685Z,18.10
2018-09-14T22:36:11.272Z,18.08
2018-09-14T22:38:39.845Z,18.09
2018-09-14T22:41:08.379Z,18.08
2018-09-14T22:43:37.005Z,18.10
2018-09-14T22:46:05.525Z,18.07
2018-09-14T22:48:33.996Z,18.03
2018-09-14T22:51:02.609Z,18.00
2018-09-14T22:53:31.223Z,18.01
2018-09-14T22:55:59.775Z,17.99
2018-09-14T22:58:28.310Z,18.01
2018-09-14T23:01:02.099Z,17.97
2018-09-14T23:03:30.632Z,17.98
2018-09-14T23:05:59.096Z,17.89
2018-09-14T23:08:27.545Z,17.83
2018-09-14T23:10:56.076Z,17.77
2018-09-14T23:13:24.680Z,17.71
2018-09-14T23:16:00.272Z,17.64
2018-09-14T23:18:29.749Z,17.62
2018-09-14T23:20:58.667Z,17.64
2018-09-14T23:23:27.886Z,17.64
2018-09-14T23:25:58.636Z,17.61
2018-09-14T23:28:27.067Z,17.61
2018-09-14T23:30:55.625Z,17.59
2018-09-14T23:33:24.214Z,17.54
2018-09-14T23:35:52.797Z,17.52
2018-09-14T23:38:21.346Z,17.49
2018-09-14T23:40:49.997Z,17.49
2018-09-14T23:43:19.006Z,17.48
2018-09-14T23:45:48.193Z,17.46
2018-09-14T23:48:16.632Z,17.43
2018-09-14T23:50:45.087Z,17.40
2018-09-14T23:53:13.733Z,17.38
2018-09-14T23:55:42.459Z,17.33
2018-09-14T23:58:10.976Z,17.32
